createdAt,value
2017-06-24T00:00:35.838Z,14.69
2017-06-24T00:01:35.747Z,14.69
2017-06-24T00:02:35.905Z,14.73
2017-06-24T00:03:35.836Z,14.68
2017-06-24T00:04:35.796Z,14.65
2017-06-24T00:05:35.841Z,14.62
2017-06-24T00:06:35.845Z,14.57
2017-06-24T00:07:35.821Z,14.54
2017-06-24T00:08:35.821Z,14.50
2017-06-24T00:09:35.820Z,14.49
2017-06-24T00:10:35.830Z,14.46
2017-06-24T00:11:35.825Z,14.43
2017-06-24T00:12:35.824Z,14.43
2017-06-24T00:13:35.824Z,14.43
2017-06-24T00:14:35.823Z,14.42
2017-06-24T00:15:35.827Z,14.42
2017-06-24T00:16:35.829Z,14.39
2017-06-24T00:17:35.829Z,14.36
2017-06-24T00:18:35.849Z,14.36
2017-06-24T00:19:35.805Z,14.33
2017-06-24T00:20:35.811Z,14.38
2017-06-24T00:21:35.812Z,14.38
2017-06-24T00:22:35.812Z,14.38
2017-06-24T00:23:35.766Z,14.38
2017-06-24T00:24:35.760Z,14.42
2017-06-24T00:25:35.841Z,14.40
2017-06-24T00:26:35.770Z,14.38
2017-06-24T00:27:35.766Z,14.38
2017-06-24T00:28:35.784Z,14.36
2017-06-24T00:29:35.766Z,14.44
2017-06-24T00:30:35.761Z,14.43
2017-06-24T00:31:35.861Z,14.44
2017-06-24T00:32:35.856Z,14.44
2017-06-24T00:33:35.852Z,14.44
2017-06-24T00:34:35.863Z,14.44
2017-06-24T00:35:35.826Z,14.43
2017-06-24T00:36:35.849Z,14.44
2017-06-24T00:37:35.842Z,14.43
2017-06-24T00:38:35.944Z,14.43
2017-06-24T00:39:35.838Z,14.47
2017-06-24T00:40:35.842Z,14.51
2017-06-24T00:41:35.840Z,14.51
2017-06-24T00:42:35.842Z,14.51
2017-06-24T00:43:35.839Z,14.51
2017-06-24T00:44:35.842Z,14.50
2017-06-24T00:45:35.840Z,14.51
2017-06-24T00:46:35.842Z,14.51
2017-06-24T00:47:35.845Z,14.54
2017-06-24T00:48:35.848Z,14.54
2017-06-24T00:49:35.846Z,14.61
2017-06-24T00:50:35.848Z,14.64
2017-06-24T00:51:35.847Z,14.65
2017-06-24T00:52:35.852Z,14.66
2017-06-24T00:53:35.849Z,14.69
2017-06-24T00:54:35.934Z,14.71
2017-06-24T00:55:35.843Z,14.75
2017-06-24T00:56:35.769Z,14.78
2017-06-24T00:57:35.834Z,14.83
2017-06-24T00:58:35.837Z,14.84
2017-06-24T00:59:35.836Z,14.84
2017-06-24T01:00:35.836Z,14.86
2017-06-24T01:01:35.839Z,14.91
2017-06-24T01:02:35.840Z,14.92
2017-06-24T01:03:35.840Z,14.94
2017-06-24T01:04:35.844Z,14.94
2017-06-24T01:05:35.941Z,14.96
2017-06-24T01:06:35.840Z,14.95
2017-06-24T01:07:35.867Z,14.95
2017-06-24T01:08:35.879Z,14.94
2017-06-24T01:09:35.841Z,14.94
2017-06-24T01:10:35.874Z,14.92
2017-06-24T01:11:35.791Z,14.91
2017-06-24T01:12:35.867Z,14.94
2017-06-24T01:13:35.795Z,14.95
2017-06-24T01:14:35.875Z,14.92
2017-06-24T01:15:35.788Z,14.89
2017-06-24T01:16:35.796Z,14.86
2017-06-24T01:17:35.856Z,14.84
2017-06-24T01:18:35.858Z,14.83
2017-06-24T01:19:35.867Z,14.83
2017-06-24T01:20:35.860Z,14.82
2017-06-24T01:21:35.862Z,14.79
2017-06-24T01:22:35.873Z,14.76
2017-06-24T01:23:35.876Z,14.73
2017-06-24T01:24:35.864Z,14.73
2017-06-24T01:25:35.866Z,14.75
2017-06-24T01:26:35.865Z,14.72
2017-06-24T01:27:35.866Z,14.69
2017-06-24T01:28:35.867Z,14.69
2017-06-24T01:29:35.868Z,14.68
2017-06-24T01:30:35.817Z,14.68
2017-06-24T01:31:35.867Z,14.68
2017-06-24T01:32:35.883Z,14.66
2017-06-24T01:33:35.869Z,14.68
2017-06-24T01:34:35.871Z,14.71
2017-06-24T01:35:35.874Z,14.71
2017-06-24T01:36:35.871Z,14.73
2017-06-24T01:37:35.898Z,14.75
2017-06-24T01:38:35.888Z,14.79
2017-06-24T01:39:35.944Z,14.82
2017-06-24T01:40:35.897Z,14.86
2017-06-24T01:41:35.824Z,14.89
2017-06-24T01:42:35.888Z,14.92
2017-06-24T01:43:35.904Z,14.96
2017-06-24T01:44:35.892Z,14.95
2017-06-24T01:45:35.890Z,14.95
2017-06-24T01:46:35.857Z,15.00
2017-06-24T01:47:35.900Z,15.02
2017-06-24T01:48:35.816Z,15.00
2017-06-24T01:50:35.830Z,15.00
2017-06-24T01:51:35.861Z,14.98
2017-06-24T01:52:35.895Z,15.02
2017-06-24T01:53:35.906Z,15.02
2017-06-24T01:54:35.813Z,15.04
2017-06-24T01:55:35.896Z,15.07
2017-06-24T01:56:35.892Z,15.07
2017-06-24T01:57:35.819Z,15.10
2017-06-24T01:58:35.821Z,15.10
2017-06-24T01:59:35.813Z,15.11
2017-06-24T02:00:35.904Z,15.13
2017-06-24T02:01:35.816Z,15.13
2017-06-24T02:02:36.068Z,15.14
2017-06-24T02:03:35.908Z,15.15
2017-06-24T02:04:35.868Z,15.17
2017-06-24T02:05:35.905Z,15.19
2017-06-24T02:06:35.814Z,15.22
2017-06-24T02:07:35.905Z,15.25
2017-06-24T02:08:35.919Z,15.32
2017-06-24T02:09:35.890Z,15.36
2017-06-24T02:10:35.886Z,15.36
2017-06-24T02:11:35.890Z,15.42
2017-06-24T02:12:35.889Z,15.44
2017-06-24T02:13:35.893Z,15.44
2017-06-24T02:14:35.889Z,15.46
2017-06-24T02:15:35.892Z,15.43
2017-06-24T02:16:35.893Z,15.42
2017-06-24T02:17:35.890Z,15.42
2017-06-24T02:18:35.929Z,15.42
2017-06-24T02:19:35.906Z,15.39
2017-06-24T02:20:35.911Z,15.37
2017-06-24T02:21:35.844Z,15.36
2017-06-24T02:22:35.895Z,15.35
2017-06-24T02:23:35.906Z,15.33
2017-06-24T02:24:35.914Z,15.33
2017-06-24T02:25:35.913Z,15.35
2017-06-24T02:26:35.884Z,15.35
2017-06-24T02:27:35.919Z,15.32
2017-06-24T02:28:35.897Z,15.29
2017-06-24T02:29:35.901Z,15.29
2017-06-24T02:30:35.982Z,15.28
2017-06-24T02:31:35.900Z,15.28
2017-06-24T02:32:35.900Z,15.28
2017-06-24T02:33:35.905Z,15.28
2017-06-24T02:34:35.941Z,15.28
2017-06-24T02:35:35.906Z,15.26
2017-06-24T02:36:35.903Z,15.25
2017-06-24T02:37:35.838Z,15.24
2017-06-24T02:38:35.844Z,15.24
2017-06-24T02:39:35.918Z,15.22
2017-06-24T02:40:35.927Z,15.22
2017-06-24T02:41:35.931Z,15.19
2017-06-24T02:42:35.924Z,15.17
2017-06-24T02:43:35.846Z,15.15
2017-06-24T02:44:35.938Z,15.14
2017-06-24T02:45:35.895Z,15.13
2017-06-24T02:46:35.926Z,15.10
2017-06-24T02:47:35.913Z,15.07
2017-06-24T02:48:35.900Z,15.04
2017-06-24T02:49:35.897Z,15.03
2017-06-24T02:50:35.900Z,15.06
2017-06-24T02:51:35.902Z,15.02
2017-06-24T02:52:35.898Z,14.98
2017-06-24T02:53:35.899Z,14.94
2017-06-24T02:54:35.902Z,14.89
2017-06-24T02:55:35.903Z,14.86
2017-06-24T02:56:35.902Z,14.83
2017-06-24T02:57:35.898Z,14.80
2017-06-24T02:58:35.919Z,14.78
2017-06-24T02:59:35.918Z,14.76
2017-06-24T03:00:35.837Z,14.73
2017-06-24T03:01:35.922Z,14.71
2017-06-24T03:02:35.918Z,14.68
2017-06-24T03:03:35.921Z,14.65
2017-06-24T03:04:35.918Z,14.66
2017-06-24T03:05:35.919Z,14.66
2017-06-24T03:06:35.918Z,14.68
2017-06-24T03:07:35.921Z,14.66
2017-06-24T03:08:35.908Z,14.65
2017-06-24T03:09:35.908Z,14.61
2017-06-24T03:10:35.912Z,14.57
2017-06-24T03:11:35.911Z,14.54
2017-06-24T03:12:35.911Z,14.51
2017-06-24T03:13:35.910Z,14.49
2017-06-24T03:14:35.999Z,14.46
2017-06-24T03:15:35.917Z,14.42
2017-06-24T03:16:35.913Z,14.39
2017-06-24T03:17:35.911Z,14.36
2017-06-24T03:18:35.951Z,14.32
2017-06-24T03:19:35.929Z,14.28
2017-06-24T03:20:35.943Z,14.25
2017-06-24T03:21:35.907Z,14.22
2017-06-24T03:22:35.935Z,14.21
2017-06-24T03:23:35.959Z,14.18
2017-06-24T03:24:35.862Z,14.15
2017-06-24T03:25:35.910Z,14.13
2017-06-24T03:26:35.871Z,14.13
2017-06-24T03:27:35.943Z,14.13
2017-06-24T03:28:35.936Z,14.10
2017-06-24T03:29:35.933Z,14.07
2017-06-24T03:30:35.934Z,14.11
2017-06-24T03:31:35.936Z,14.10
2017-06-24T03:32:35.942Z,14.09
2017-06-24T03:33:35.935Z,14.09
2017-06-24T03:34:35.937Z,14.04
2017-06-24T03:35:35.932Z,14.00
2017-06-24T03:36:35.934Z,13.95
2017-06-24T03:37:35.939Z,13.93
2017-06-24T03:38:35.944Z,13.91
2017-06-24T03:39:35.953Z,13.88
2017-06-24T03:40:35.868Z,13.84
2017-06-24T03:41:35.938Z,13.83
2017-06-24T03:42:35.959Z,13.81
2017-06-24T03:43:35.879Z,13.76
2017-06-24T03:44:35.957Z,13.72
2017-06-24T03:45:35.918Z,13.68
2017-06-24T03:46:35.955Z,13.66
2017-06-24T03:47:35.879Z,13.65
2017-06-24T03:48:35.936Z,13.64
2017-06-24T03:49:35.959Z,13.64
2017-06-24T03:50:35.879Z,13.65
2017-06-24T03:51:35.951Z,13.64
2017-06-24T03:52:35.878Z,13.62
2017-06-24T03:53:35.967Z,13.62
2017-06-24T03:54:35.945Z,13.62
2017-06-24T03:55:35.966Z,13.62
2017-06-24T03:56:35.956Z,13.62
2017-06-24T03:57:35.884Z,13.62
2017-06-24T03:58:35.965Z,13.62
2017-06-24T03:59:35.948Z,13.62
2017-06-24T04:00:35.941Z,13.62
2017-06-24T04:01:35.971Z,13.62
2017-06-24T04:02:35.965Z,13.64
2017-06-24T04:03:35.972Z,13.66
2017-06-24T04:04:35.945Z,13.66
2017-06-24T04:05:35.943Z,13.69
2017-06-24T04:06:35.962Z,13.70
2017-06-24T04:07:35.971Z,13.73
2017-06-24T04:08:35.963Z,13.75
2017-06-24T04:09:35.969Z,13.73
2017-06-24T04:10:35.880Z,13.80
2017-06-24T04:11:35.948Z,13.86
2017-06-24T04:12:35.945Z,14.02
2017-06-24T04:13:35.967Z,14.15
2017-06-24T04:14:35.956Z,14.24
2017-06-24T04:15:35.934Z,14.36
2017-06-24T04:16:35.894Z,14.43
2017-06-24T04:17:35.982Z,14.50
2017-06-24T04:18:35.951Z,14.55
2017-06-24T04:19:35.948Z,14.64
2017-06-24T04:20:36.049Z,14.73
2017-06-24T04:21:35.951Z,14.82
2017-06-24T04:22:35.979Z,14.86
2017-06-24T04:23:35.950Z,14.87
2017-06-24T04:24:35.951Z,14.92
2017-06-24T04:25:35.952Z,14.96
2017-06-24T04:26:35.949Z,15.00
2017-06-24T04:27:35.952Z,15.07
2017-06-24T04:28:35.981Z,15.13
2017-06-24T04:29:35.917Z,15.24
2017-06-24T04:30:35.989Z,15.32
2017-06-24T04:31:35.942Z,15.37
2017-06-24T04:32:35.983Z,15.46
2017-06-24T04:33:35.949Z,15.51
2017-06-24T04:34:35.908Z,15.57
2017-06-24T04:35:35.991Z,15.66
2017-06-24T04:36:35.987Z,15.73
2017-06-24T04:37:35.987Z,15.80
2017-06-24T04:38:35.899Z,15.87
2017-06-24T04:39:35.962Z,15.93
2017-06-24T04:40:35.904Z,16.00
2017-06-24T04:41:35.907Z,16.06
2017-06-24T04:42:35.966Z,16.10
2017-06-24T04:43:35.903Z,16.14
2017-06-24T04:44:35.994Z,16.18
2017-06-24T04:45:35.971Z,16.24
2017-06-24T04:46:35.996Z,16.29
2017-06-24T04:47:35.902Z,16.29
2017-06-24T04:48:35.951Z,16.31
2017-06-24T04:49:35.963Z,16.32
2017-06-24T04:50:35.947Z,16.32
2017-06-24T04:51:35.990Z,16.33
2017-06-24T04:52:35.910Z,16.36
2017-06-24T04:53:36.048Z,16.38
2017-06-24T04:54:35.913Z,16.41
2017-06-24T04:55:35.978Z,16.41
2017-06-24T04:56:35.920Z,16.43
2017-06-24T04:57:35.907Z,16.46
2017-06-24T04:58:35.917Z,16.46
2017-06-24T04:59:35.913Z,16.47
2017-06-24T05:00:35.906Z,16.50
2017-06-24T05:01:35.911Z,16.55
2017-06-24T05:02:36.014Z,16.59
2017-06-24T05:03:35.912Z,16.62
2017-06-24T05:04:35.913Z,16.66
2017-06-24T05:05:35.993Z,16.72
2017-06-24T05:06:35.981Z,16.73
2017-06-24T05:07:36.004Z,16.77
2017-06-24T05:08:36.056Z,16.80
2017-06-24T05:09:35.918Z,16.83
2017-06-24T05:10:36.059Z,16.87
2017-06-24T05:11:35.966Z,16.88
2017-06-24T05:12:35.961Z,16.87
2017-06-24T05:13:35.967Z,16.90
2017-06-24T05:14:35.968Z,16.91
2017-06-24T05:15:36.010Z,16.90
2017-06-24T05:16:36.008Z,16.92
2017-06-24T05:17:36.008Z,16.95
2017-06-24T05:18:36.011Z,16.95
2017-06-24T05:19:35.932Z,16.95
2017-06-24T05:20:36.010Z,16.90
2017-06-24T05:21:36.009Z,16.84
2017-06-24T05:22:35.988Z,16.85
2017-06-24T05:23:36.017Z,16.83
2017-06-24T05:24:36.011Z,16.80
2017-06-24T05:25:35.974Z,16.79
2017-06-24T05:26:35.936Z,16.81
2017-06-24T05:27:36.024Z,16.84
2017-06-24T05:28:35.935Z,16.88
2017-06-24T05:29:35.990Z,16.97
2017-06-24T05:30:35.985Z,17.02
2017-06-24T05:31:35.987Z,17.12
2017-06-24T05:32:35.988Z,17.13
2017-06-24T05:33:35.985Z,17.20
2017-06-24T05:34:35.988Z,17.20
2017-06-24T05:35:35.989Z,17.14
2017-06-24T05:36:35.987Z,17.22
2017-06-24T05:37:35.986Z,17.22
2017-06-24T05:38:35.990Z,17.31
2017-06-24T05:39:36.023Z,17.39
2017-06-24T05:40:36.018Z,17.49
2017-06-24T05:41:36.035Z,17.50
2017-06-24T05:42:35.982Z,17.50
2017-06-24T05:43:35.984Z,17.51
2017-06-24T05:44:36.024Z,17.57
2017-06-24T05:45:35.987Z,17.54
2017-06-24T05:46:35.947Z,17.51
2017-06-24T05:47:35.939Z,17.55
2017-06-24T05:48:36.025Z,17.54
2017-06-24T05:49:36.025Z,17.53
2017-06-24T05:50:36.024Z,17.51
2017-06-24T05:51:36.022Z,17.51
2017-06-24T05:52:35.943Z,17.47
2017-06-24T05:53:35.952Z,17.46
2017-06-24T05:54:36.007Z,17.49
2017-06-24T05:55:35.937Z,17.53
2017-06-24T05:56:36.029Z,17.50
2017-06-24T05:57:36.036Z,17.46
2017-06-24T05:58:35.937Z,17.44
2017-06-24T05:59:36.020Z,17.47
2017-06-24T06:00:36.015Z,17.58
2017-06-24T06:01:36.017Z,17.58
2017-06-24T06:02:36.018Z,17.57
2017-06-24T06:03:36.021Z,17.60
2017-06-24T06:04:36.027Z,17.68
2017-06-24T06:05:36.019Z,17.68
2017-06-24T06:06:36.128Z,17.66
2017-06-24T06:07:36.021Z,17.76
2017-06-24T06:08:36.021Z,17.79
2017-06-24T06:09:36.008Z,17.84
2017-06-24T06:10:36.008Z,17.73
2017-06-24T06:11:36.009Z,17.68
2017-06-24T06:12:36.011Z,17.71
2017-06-24T06:13:36.023Z,17.66
2017-06-24T06:14:36.010Z,17.65
2017-06-24T06:15:36.015Z,17.65
2017-06-24T06:16:36.109Z,17.68
2017-06-24T06:17:36.016Z,17.73
2017-06-24T06:18:36.010Z,17.80
2017-06-24T06:19:35.960Z,17.85
2017-06-24T06:20:36.050Z,17.89
2017-06-24T06:21:36.022Z,17.87
2017-06-24T06:22:36.038Z,17.89
2017-06-24T06:23:36.055Z,17.91
2017-06-24T06:24:35.958Z,17.91
2017-06-24T06:25:35.967Z,17.89
2017-06-24T06:26:36.046Z,17.87
2017-06-24T06:27:35.968Z,17.84
2017-06-24T06:28:35.962Z,17.83
2017-06-24T06:29:36.009Z,17.84
2017-06-24T06:30:36.013Z,17.76
2017-06-24T06:31:36.052Z,17.79
2017-06-24T06:32:35.973Z,17.84
2017-06-24T06:33:35.972Z,17.85
2017-06-24T06:34:36.052Z,17.85
2017-06-24T06:35:36.056Z,17.80
2017-06-24T06:36:35.961Z,17.83
2017-06-24T06:37:36.055Z,17.83
2017-06-24T06:38:36.051Z,17.79
2017-06-24T06:39:35.972Z,17.77
2017-06-24T06:40:36.032Z,17.76
2017-06-24T06:41:35.974Z,17.76
2017-06-24T06:42:36.030Z,17.76
2017-06-24T06:43:36.055Z,17.79
2017-06-24T06:44:35.977Z,17.80
2017-06-24T06:45:35.970Z,17.83
2017-06-24T06:46:36.067Z,17.80
2017-06-24T06:47:36.000Z,17.84
2017-06-24T06:48:35.974Z,17.83
2017-06-24T06:49:36.028Z,17.80
2017-06-24T06:50:36.028Z,17.89
2017-06-24T06:51:36.031Z,17.92
2017-06-24T06:52:36.028Z,17.96
2017-06-24T06:53:36.030Z,17.92
2017-06-24T06:54:36.030Z,17.92
2017-06-24T06:55:36.033Z,17.94
2017-06-24T06:56:36.035Z,17.96
2017-06-24T06:57:36.031Z,17.96
2017-06-24T06:58:36.034Z,17.95
2017-06-24T06:59:35.982Z,17.95
2017-06-24T07:00:36.070Z,17.99
2017-06-24T07:01:36.078Z,18.02
2017-06-24T07:02:36.024Z,18.09
2017-06-24T07:03:36.060Z,18.13
2017-06-24T07:04:35.981Z,18.20
2017-06-24T07:05:36.009Z,18.17
2017-06-24T07:06:35.990Z,18.17
2017-06-24T07:07:36.012Z,18.16
2017-06-24T07:08:36.071Z,18.16
2017-06-24T07:09:36.049Z,18.18
2017-06-24T07:10:36.055Z,18.20
2017-06-24T07:11:36.048Z,18.20
2017-06-24T07:12:36.143Z,18.25
2017-06-24T07:13:36.051Z,18.32
2017-06-24T07:14:35.968Z,18.43
2017-06-24T07:15:36.054Z,18.48
2017-06-24T07:16:36.056Z,18.54
2017-06-24T07:17:36.054Z,18.59
2017-06-24T07:18:36.051Z,18.58
2017-06-24T07:19:36.055Z,18.68
2017-06-24T07:20:36.053Z,18.65
2017-06-24T07:21:36.059Z,18.61
2017-06-24T07:22:36.058Z,18.61
2017-06-24T07:23:36.053Z,18.62
2017-06-24T07:24:36.060Z,18.68
2017-06-24T07:25:36.059Z,18.72
2017-06-24T07:26:36.061Z,18.83
2017-06-24T07:27:36.061Z,18.92
2017-06-24T07:28:36.061Z,18.92
2017-06-24T07:29:35.992Z,18.98
2017-06-24T07:30:36.091Z,18.92
2017-06-24T07:31:36.085Z,18.95
2017-06-24T07:32:35.999Z,18.97
2017-06-24T07:33:36.084Z,18.99
2017-06-24T07:34:36.084Z,19.02
2017-06-24T07:35:35.992Z,19.02
2017-06-24T07:36:36.095Z,18.99
2017-06-24T07:37:35.998Z,18.98
2017-06-24T07:38:36.066Z,19.03
2017-06-24T07:39:35.966Z,19.03
2017-06-24T07:40:36.001Z,19.01
2017-06-24T07:41:36.040Z,18.97
2017-06-24T07:42:36.034Z,18.90
2017-06-24T07:43:35.996Z,18.92
2017-06-24T07:44:36.097Z,18.94
2017-06-24T07:45:35.987Z,18.92
2017-06-24T07:46:35.998Z,18.99
2017-06-24T07:47:35.990Z,19.05
2017-06-24T07:48:36.046Z,18.99
2017-06-24T07:49:36.102Z,19.01
2017-06-24T07:50:36.101Z,18.97
2017-06-24T07:51:36.090Z,19.06
2017-06-24T07:52:36.099Z,19.13
2017-06-24T07:53:36.084Z,19.17
2017-06-24T07:54:36.093Z,19.24
2017-06-24T07:55:36.052Z,19.20
2017-06-24T07:56:36.056Z,19.17
2017-06-24T07:57:36.097Z,19.10
2017-06-24T07:58:36.102Z,19.10
2017-06-24T07:59:36.009Z,19.12
2017-06-24T08:00:36.055Z,19.13
2017-06-24T08:01:36.091Z,19.17
2017-06-24T08:02:36.100Z,19.20
2017-06-24T08:03:36.061Z,19.24
2017-06-24T08:04:36.015Z,19.33
2017-06-24T08:05:36.014Z,19.33
2017-06-24T08:06:36.106Z,19.27
2017-06-24T08:07:36.063Z,19.21
2017-06-24T08:08:36.019Z,19.31
2017-06-24T08:09:36.115Z,19.43
2017-06-24T08:10:36.104Z,19.46
2017-06-24T08:11:36.106Z,19.50
2017-06-24T08:12:36.083Z,19.47
2017-06-24T08:13:36.093Z,19.51
2017-06-24T08:14:36.098Z,19.60
2017-06-24T08:15:36.103Z,19.68
2017-06-24T08:16:36.098Z,19.72
2017-06-24T08:17:36.111Z,19.83
2017-06-24T08:18:36.106Z,20.10
2017-06-24T08:19:36.092Z,20.25
2017-06-24T08:20:36.093Z,20.24
2017-06-24T08:21:36.102Z,20.16
2017-06-24T08:22:36.106Z,20.13
2017-06-24T08:23:36.092Z,20.03
2017-06-24T08:24:36.095Z,19.99
2017-06-24T08:25:36.097Z,19.98
2017-06-24T08:26:36.096Z,19.92
2017-06-24T08:27:36.097Z,20.01
2017-06-24T08:28:36.097Z,20.02
2017-06-24T08:29:36.116Z,20.07
2017-06-24T08:30:36.034Z,20.17
2017-06-24T08:31:36.099Z,20.30
2017-06-24T08:32:36.098Z,20.20
2017-06-24T08:33:36.121Z,20.25
2017-06-24T08:34:36.121Z,20.28
2017-06-24T08:35:36.128Z,20.30
2017-06-24T08:36:36.028Z,20.17
2017-06-24T08:37:36.034Z,20.02
2017-06-24T08:38:36.127Z,19.80
2017-06-24T08:39:36.122Z,19.73
2017-06-24T08:40:36.041Z,19.80
2017-06-24T08:41:36.132Z,19.83
2017-06-24T08:42:36.029Z,19.90
2017-06-24T08:43:36.041Z,20.02
2017-06-24T08:44:36.118Z,20.02
2017-06-24T08:45:36.125Z,19.84
2017-06-24T08:46:36.031Z,19.81
2017-06-24T08:47:36.132Z,19.80
2017-06-24T08:48:36.125Z,19.87
2017-06-24T08:49:36.109Z,19.85
2017-06-24T08:50:36.108Z,19.90
2017-06-24T08:51:36.109Z,19.92
2017-06-24T08:52:36.111Z,19.94
2017-06-24T08:53:36.108Z,19.94
2017-06-24T08:54:36.114Z,19.85
2017-06-24T08:55:36.108Z,19.83
2017-06-24T08:56:36.104Z,19.84
2017-06-24T08:57:36.114Z,19.91
2017-06-24T08:58:36.111Z,19.90
2017-06-24T08:59:36.115Z,19.88
2017-06-24T09:00:36.089Z,19.90
2017-06-24T09:01:36.131Z,19.92
2017-06-24T09:02:36.108Z,19.90
2017-06-24T09:03:36.053Z,19.88
2017-06-24T09:04:36.045Z,19.88
2017-06-24T09:05:36.114Z,19.92
2017-06-24T09:06:36.052Z,20.01
2017-06-24T09:07:36.046Z,20.07
2017-06-24T09:08:36.087Z,20.13
2017-06-24T09:09:36.144Z,20.20
2017-06-24T09:10:36.117Z,20.25
2017-06-24T09:11:36.117Z,20.28
2017-06-24T09:12:36.115Z,20.31
2017-06-24T09:13:36.117Z,20.28
2017-06-24T09:14:36.121Z,20.24
2017-06-24T09:15:36.118Z,20.35
2017-06-24T09:16:36.149Z,20.43
2017-06-24T09:17:36.120Z,20.53
2017-06-24T09:18:36.122Z,20.64
2017-06-24T09:19:36.119Z,20.69
2017-06-24T09:20:36.111Z,20.61
2017-06-24T09:21:36.114Z,20.61
2017-06-24T09:22:36.111Z,20.58
2017-06-24T09:23:36.115Z,20.64
2017-06-24T09:24:36.113Z,20.69
2017-06-24T09:25:36.115Z,20.97
2017-06-24T09:26:36.117Z,20.95
2017-06-24T09:27:36.119Z,20.88
2017-06-24T09:28:36.117Z,20.98
2017-06-24T09:29:36.120Z,21.01
2017-06-24T09:30:36.155Z,20.95
2017-06-24T09:31:36.056Z,20.94
2017-06-24T09:32:36.153Z,20.95
2017-06-24T09:33:36.063Z,20.95
2017-06-24T09:34:36.057Z,21.02
2017-06-24T09:35:36.110Z,21.09
2017-06-24T09:36:36.152Z,21.22
2017-06-24T09:37:36.113Z,21.58
2017-06-24T09:38:36.149Z,21.79
2017-06-24T09:39:36.134Z,21.82
2017-06-24T09:40:36.121Z,21.94
2017-06-24T09:41:36.127Z,22.01
2017-06-24T09:42:36.125Z,22.08
2017-06-24T09:43:36.128Z,21.90
2017-06-24T09:44:36.126Z,21.78
2017-06-24T09:45:36.126Z,21.69
2017-06-24T09:46:36.126Z,21.68
2017-06-24T09:47:36.125Z,21.67
2017-06-24T09:48:36.125Z,21.60
2017-06-24T09:49:36.128Z,21.60
2017-06-24T09:50:36.160Z,21.68
2017-06-24T09:51:36.153Z,21.65
2017-06-24T09:52:36.075Z,21.47
2017-06-24T09:53:36.155Z,21.35
2017-06-24T09:54:36.163Z,21.29
2017-06-24T09:55:36.160Z,21.13
2017-06-24T09:56:36.125Z,21.13
2017-06-24T09:57:36.077Z,20.97
2017-06-24T09:58:36.155Z,20.90
2017-06-24T09:59:36.159Z,20.90
2017-06-24T10:00:36.163Z,20.91
2017-06-24T10:01:36.146Z,20.80
2017-06-24T10:02:36.148Z,20.83
2017-06-24T10:03:36.149Z,20.94
2017-06-24T10:04:36.148Z,20.98
2017-06-24T10:05:36.149Z,21.02
2017-06-24T10:06:36.167Z,21.02
2017-06-24T10:07:36.144Z,20.98
2017-06-24T10:08:36.147Z,21.05
2017-06-24T10:09:36.147Z,21.09
2017-06-24T10:10:36.086Z,21.16
2017-06-24T10:11:36.170Z,21.25
2017-06-24T10:12:36.074Z,21.36
2017-06-24T10:13:36.091Z,21.53
2017-06-24T10:14:36.168Z,21.57
2017-06-24T10:15:36.141Z,21.57
2017-06-24T10:16:36.080Z,21.51
2017-06-24T10:17:36.175Z,21.40
2017-06-24T10:18:36.168Z,21.28
2017-06-24T10:19:36.178Z,21.21
2017-06-24T10:20:36.175Z,21.08
2017-06-24T10:21:36.176Z,21.02
2017-06-24T10:22:36.092Z,21.04
2017-06-24T10:23:36.178Z,20.95
2017-06-24T10:24:36.170Z,20.91
2017-06-24T10:25:36.096Z,20.94
2017-06-24T10:26:36.094Z,20.93
2017-06-24T10:27:36.178Z,20.91
2017-06-24T10:28:36.089Z,20.91
2017-06-24T10:29:36.146Z,20.90
2017-06-24T10:30:36.166Z,20.83
2017-06-24T10:31:36.162Z,20.77
2017-06-24T10:32:36.162Z,20.84
2017-06-24T10:33:36.166Z,20.95
2017-06-24T10:34:36.164Z,21.04
2017-06-24T10:35:36.169Z,21.09
2017-06-24T10:36:36.176Z,21.01
2017-06-24T10:37:36.153Z,20.97
2017-06-24T10:38:36.165Z,20.97
2017-06-24T10:39:36.252Z,21.14
2017-06-24T10:40:36.154Z,21.28
2017-06-24T10:41:36.159Z,21.39
2017-06-24T10:42:36.160Z,21.45
2017-06-24T10:43:36.185Z,21.54
2017-06-24T10:44:36.159Z,21.67
2017-06-24T10:45:36.161Z,21.68
2017-06-24T10:46:36.162Z,21.75
2017-06-24T10:47:36.163Z,21.68
2017-06-24T10:48:36.162Z,21.76
2017-06-24T10:49:36.165Z,21.84
2017-06-24T10:50:36.195Z,21.91
2017-06-24T10:51:36.190Z,21.87
2017-06-24T10:52:36.257Z,21.89
2017-06-24T10:53:36.196Z,21.89
2017-06-24T10:54:36.198Z,21.94
2017-06-24T10:55:36.199Z,22.08
2017-06-24T10:56:36.203Z,22.17
2017-06-24T10:57:36.196Z,22.25
2017-06-24T10:58:36.116Z,22.34
2017-06-24T10:59:36.177Z,22.41
2017-06-24T11:00:36.113Z,22.43
2017-06-24T11:01:36.113Z,22.38
2017-06-24T11:02:36.251Z,22.39
2017-06-24T11:03:36.207Z,22.39
2017-06-24T11:04:36.200Z,22.35
2017-06-24T11:05:36.180Z,22.39
2017-06-24T11:06:36.119Z,22.35
2017-06-24T11:07:36.117Z,22.21
2017-06-24T11:08:36.162Z,22.21
2017-06-24T11:09:36.219Z,22.08
2017-06-24T11:10:36.190Z,22.09
2017-06-24T11:11:36.188Z,22.20
2017-06-24T11:12:36.203Z,22.14
2017-06-24T11:13:36.189Z,21.97
2017-06-24T11:14:36.184Z,21.94
2017-06-24T11:15:36.189Z,21.93
2017-06-24T11:16:36.188Z,21.65
2017-06-24T11:17:36.186Z,21.53
2017-06-24T11:18:36.189Z,21.57
2017-06-24T11:19:36.189Z,21.61
2017-06-24T11:20:36.129Z,21.72
2017-06-24T11:21:36.183Z,21.72
2017-06-24T11:22:36.173Z,21.65
2017-06-24T11:23:36.136Z,21.61
2017-06-24T11:24:36.132Z,21.62
2017-06-24T11:25:36.134Z,21.69
2017-06-24T11:26:36.138Z,21.72
2017-06-24T11:27:36.241Z,21.72
2017-06-24T11:28:36.130Z,21.64
2017-06-24T11:29:36.120Z,21.64
2017-06-24T11:30:36.195Z,21.64
2017-06-24T11:31:36.197Z,21.61
2017-06-24T11:32:36.197Z,21.58
2017-06-24T11:33:36.114Z,21.58
2017-06-24T11:34:36.199Z,21.65
2017-06-24T11:35:36.205Z,21.73
2017-06-24T11:36:36.198Z,21.76
2017-06-24T11:37:36.202Z,21.73
2017-06-24T11:38:36.204Z,21.69
2017-06-24T11:39:36.203Z,21.71
2017-06-24T11:40:36.203Z,21.76
2017-06-24T11:41:36.202Z,21.86
2017-06-24T11:42:36.205Z,21.97
2017-06-24T11:43:36.252Z,22.01
2017-06-24T11:44:36.202Z,22.01
2017-06-24T11:45:36.201Z,22.12
2017-06-24T11:46:36.205Z,22.17
2017-06-24T11:47:36.211Z,22.27
2017-06-24T11:48:36.206Z,22.39
2017-06-24T11:49:36.205Z,22.49
2017-06-24T11:50:36.195Z,22.52
2017-06-24T11:51:36.194Z,22.50
2017-06-24T11:52:36.194Z,22.59
2017-06-24T11:53:36.196Z,22.67
2017-06-24T11:54:36.196Z,22.63
2017-06-24T11:55:36.199Z,22.71
2017-06-24T11:56:36.195Z,22.52
2017-06-24T11:57:36.197Z,22.43
2017-06-24T11:58:36.201Z,22.42
2017-06-24T11:59:36.201Z,22.35
2017-06-24T12:00:36.217Z,22.31
2017-06-24T12:01:36.216Z,22.24
2017-06-24T12:02:36.217Z,22.10
2017-06-24T12:03:36.219Z,22.09
2017-06-24T12:04:36.217Z,22.12
2017-06-24T12:05:36.216Z,22.20
2017-06-24T12:06:36.218Z,22.08
2017-06-24T12:07:36.224Z,22.08
2017-06-24T12:08:36.217Z,22.04
2017-06-24T12:09:36.219Z,22.10
2017-06-24T12:10:36.236Z,22.19
2017-06-24T12:11:36.220Z,22.21
2017-06-24T12:12:36.218Z,22.30
2017-06-24T12:13:36.219Z,22.39
2017-06-24T12:14:36.220Z,22.42
2017-06-24T12:15:36.223Z,22.46
2017-06-24T12:16:36.221Z,22.43
2017-06-24T12:17:36.219Z,22.46
2017-06-24T12:18:36.225Z,22.56
2017-06-24T12:19:36.224Z,22.64
2017-06-24T12:20:36.240Z,22.77
2017-06-24T12:21:36.164Z,22.75
2017-06-24T12:22:36.247Z,22.76
2017-06-24T12:23:36.239Z,22.72
2017-06-24T12:24:36.167Z,22.75
2017-06-24T12:25:36.240Z,22.67
2017-06-24T12:26:36.246Z,22.61
2017-06-24T12:27:36.204Z,22.63
2017-06-24T12:28:36.168Z,22.82
2017-06-24T12:29:36.169Z,22.86
2017-06-24T12:30:36.227Z,22.90
2017-06-24T12:31:36.234Z,22.87
2017-06-24T12:32:36.229Z,22.88
2017-06-24T12:33:36.312Z,22.77
2017-06-24T12:34:36.234Z,22.71
2017-06-24T12:35:36.234Z,22.67
2017-06-24T12:36:36.231Z,22.61
2017-06-24T12:37:36.233Z,22.68
2017-06-24T12:38:36.231Z,22.64
2017-06-24T12:39:36.232Z,22.56
2017-06-24T12:40:36.192Z,22.54
2017-06-24T12:41:36.194Z,22.56
2017-06-24T12:42:36.215Z,22.59
2017-06-24T12:43:36.159Z,22.54
2017-06-24T12:44:36.145Z,22.52
2017-06-24T12:45:36.300Z,22.50
2017-06-24T12:46:36.205Z,22.42
2017-06-24T12:47:36.195Z,22.35
2017-06-24T12:48:36.213Z,22.27
2017-06-24T12:49:36.266Z,22.34
2017-06-24T12:50:36.239Z,22.49
2017-06-24T12:51:36.245Z,22.61
2017-06-24T12:52:36.326Z,22.52
2017-06-24T12:53:36.243Z,22.50